createdAt,value
2018-09-14T00:01:18.492Z,8.13
2018-09-14T00:03:49.518Z,9.53
2018-09-14T00:06:20.276Z,8.67
2018-09-14T00:08:51.076Z,10.23
2018-09-14T00:11:21.896Z,8.87
2018-09-14T00:13:52.943Z,8.73
2018-09-14T00:16:23.871Z,8.73
2018-09-14T00:18:54.700Z,7.93
2018-09-14T00:21:25.467Z,8.70
2018-09-14T00:23:56.249Z,8.50
2018-09-14T00:26:27.319Z,8.83
2018-09-14T00:28:58.191Z,8.63
2018-09-14T00:31:30.008Z,8.27
2018-09-14T00:34:00.982Z,8.33
2018-09-14T00:36:31.837Z,8.27
2018-09-14T00:39:02.664Z,8.73
2018-09-14T00:41:33.824Z,8.73
2018-09-14T00:44:05.100Z,8.27
2018-09-14T00:46:36.534Z,8.57
2018-09-14T00:49:07.426Z,8.03
2018-09-14T00:51:38.201Z,7.93
2018-09-14T00:54:09.343Z,8.20
2018-09-14T00:56:40.248Z,8.40
2018-09-14T00:59:11.217Z,8.97
2018-09-14T01:01:42.049Z,8.37
2018-09-14T01:04:12.962Z,8.23
2018-09-14T01:06:43.881Z,8.23
2018-09-14T01:09:18.653Z,8.10
2018-09-14T01:11:49.541Z,8.03
2018-09-14T01:14:20.389Z,8.60
2018-09-14T01:16:51.153Z,8.27
2018-09-14T01:19:22.056Z,8.70
2018-09-14T01:21:52.944Z,8.17
2018-09-14T01:24:23.622Z,8.70
2018-09-14T01:26:54.289Z,8.33
2018-09-14T01:29:25.180Z,7.57
2018-09-14T01:31:56.258Z,8.80
2018-09-14T01:34:27.068Z,8.03
2018-09-14T01:36:57.889Z,8.77
2018-09-14T01:39:28.717Z,7.87
2018-09-14T01:41:59.547Z,8.33
2018-09-14T01:44:30.372Z,8.47
2018-09-14T01:47:01.288Z,9.30
2018-09-14T01:49:32.063Z,8.80
2018-09-14T01:52:02.953Z,9.03
2018-09-14T01:54:33.764Z,9.17
2018-09-14T01:57:04.596Z,8.73
2018-09-14T01:59:35.416Z,9.20
2018-09-14T02:02:06.210Z,9.07
2018-09-14T02:04:37.034Z,9.20
2018-09-14T02:07:08.474Z,8.83
2018-09-14T02:09:39.207Z,10.03
2018-09-14T02:12:10.086Z,9.70
2018-09-14T02:14:40.850Z,9.43
2018-09-14T02:17:11.631Z,10.00
2018-09-14T02:19:42.430Z,9.20
2018-09-14T02:22:13.234Z,8.87
2018-09-14T02:24:44.012Z,9.90
2018-09-14T02:27:15.159Z,9.40
2018-09-14T02:29:45.947Z,9.50
2018-09-14T02:32:16.696Z,9.20
2018-09-14T02:34:47.517Z,9.77
2018-09-14T02:37:18.309Z,9.43
2018-09-14T02:39:49.092Z,9.13
2018-09-14T02:42:19.752Z,9.53
2018-09-14T02:44:50.460Z,9.50
2018-09-14T02:47:21.520Z,10.30
2018-09-14T02:49:52.329Z,9.47
2018-09-14T02:52:23.488Z,9.43
2018-09-14T02:54:54.293Z,9.53
2018-09-14T02:57:25.040Z,9.73
2018-09-14T02:59:55.761Z,9.43
2018-09-14T03:02:26.636Z,10.27
2018-09-14T03:04:57.392Z,10.13
2018-09-14T03:07:28.306Z,9.90
2018-09-14T03:09:59.058Z,10.43
2018-09-14T03:12:30.094Z,10.23
2018-09-14T03:15:00.982Z,9.07
2018-09-14T03:17:31.985Z,9.03
2018-09-14T03:20:02.797Z,9.23
2018-09-14T03:22:33.594Z,9.63
2018-09-14T03:25:04.693Z,9.63
2018-09-14T03:27:35.718Z,9.90
2018-09-14T03:30:06.743Z,10.13
2018-09-14T03:32:37.773Z,9.23
2018-09-14T03:35:08.762Z,9.60
2018-09-14T03:37:39.650Z,9.90
2018-09-14T03:40:10.501Z,9.27
2018-09-14T03:42:41.435Z,8.83
2018-09-14T03:45:12.276Z,8.23
2018-09-14T03:47:43.069Z,8.93
2018-09-14T03:50:13.897Z,8.33
2018-09-14T03:52:44.704Z,7.87
2018-09-14T03:55:15.471Z,9.27
2018-09-14T03:57:46.300Z,9.40
2018-09-14T04:00:17.216Z,8.43
2018-09-14T04:02:48.055Z,9.33
2018-09-14T04:05:18.888Z,8.87
2018-09-14T04:07:49.828Z,9.20
2018-09-14T04:10:20.642Z,9.30
2018-09-14T04:12:51.443Z,9.70
2018-09-14T04:15:22.334Z,8.93
2018-09-14T04:17:53.219Z,9.17
2018-09-14T04:20:24.114Z,9.77
2018-09-14T04:22:55.053Z,9.70
2018-09-14T04:25:26.247Z,9.20
2018-09-14T04:27:57.142Z,9.20
2018-09-14T04:30:28.085Z,9.23
2018-09-14T04:32:59.020Z,9.50
2018-09-14T04:35:30.179Z,9.10
2018-09-14T04:38:01.129Z,9.47
2018-09-14T04:40:32.040Z,9.57
2018-09-14T04:43:02.949Z,9.53
2018-09-14T04:45:33.766Z,10.33
2018-09-14T04:48:04.637Z,9.80
2018-09-14T04:50:35.622Z,9.37
2018-09-14T04:53:06.542Z,9.67
2018-09-14T04:55:37.413Z,9.93
2018-09-14T04:58:08.303Z,10.23
2018-09-14T05:00:39.344Z,10.60
2018-09-14T05:03:10.466Z,10.07
2018-09-14T05:05:41.349Z,10.10
2018-09-14T05:08:12.326Z,9.03
2018-09-14T05:10:43.200Z,9.60
2018-09-14T05:13:14.999Z,9.10
2018-09-14T05:15:45.931Z,9.80
2018-09-14T05:18:17.217Z,9.00
2018-09-14T05:20:48.783Z,8.80
2018-09-14T05:23:19.913Z,9.93
2018-09-14T05:25:51.005Z,9.63
2018-09-14T05:28:22.189Z,9.53
2018-09-14T05:30:53.133Z,9.40
2018-09-14T05:33:23.955Z,10.13
2018-09-14T05:35:54.849Z,10.10
2018-09-14T05:38:25.851Z,9.73
2018-09-14T05:40:56.864Z,11.10
2018-09-14T05:43:27.757Z,9.93
2018-09-14T05:45:58.629Z,11.00
2018-09-14T05:48:29.520Z,10.87
2018-09-14T05:51:00.326Z,10.93
2018-09-14T05:53:31.258Z,10.27
2018-09-14T05:56:02.123Z,10.17
2018-09-14T05:58:32.963Z,11.50
2018-09-14T06:01:04.008Z,11.57
2018-09-14T06:03:34.974Z,11.30
2018-09-14T06:06:06.021Z,11.10
2018-09-14T06:08:36.835Z,10.90
2018-09-14T06:11:07.854Z,10.73
2018-09-14T06:13:38.792Z,11.57
2018-09-14T06:16:09.821Z,10.67
2018-09-14T06:18:40.710Z,10.87
2018-09-14T06:21:11.644Z,10.53
2018-09-14T06:23:42.713Z,11.07
2018-09-14T06:26:13.904Z,10.90
2018-09-14T06:28:45.131Z,11.87
2018-09-14T06:31:16.296Z,11.70
2018-09-14T06:33:47.617Z,11.67
2018-09-14T06:36:18.629Z,10.87
2018-09-14T06:38:49.693Z,11.63
2018-09-14T06:41:20.663Z,12.40
2018-09-14T06:43:51.757Z,11.47
2018-09-14T06:46:22.741Z,10.30
2018-09-14T06:48:53.784Z,11.30
2018-09-14T06:51:24.800Z,11.20
2018-09-14T06:53:55.761Z,10.87
2018-09-14T06:56:26.813Z,10.63
2018-09-14T06:58:57.951Z,10.80
2018-09-14T07:01:29.073Z,11.03
2018-09-14T07:04:00.283Z,10.27
2018-09-14T07:06:31.285Z,9.47
2018-09-14T07:09:02.632Z,11.00
2018-09-14T07:11:33.710Z,10.27
2018-09-14T07:14:04.900Z,9.70
2018-09-14T07:16:35.858Z,9.73
2018-09-14T07:19:06.986Z,9.27
2018-09-14T07:21:38.034Z,8.90
2018-09-14T07:24:09.115Z,9.43
2018-09-14T07:26:40.523Z,10.00
2018-09-14T07:29:11.871Z,9.33
2018-09-14T07:31:42.973Z,9.27
2018-09-14T07:34:13.947Z,9.50
2018-09-14T07:36:44.986Z,9.30
2018-09-14T07:39:15.879Z,8.77
2018-09-14T07:41:46.881Z,9.43
2018-09-14T07:44:17.835Z,8.30
2018-09-14T07:46:48.831Z,8.00
2018-09-14T07:49:19.699Z,8.07
2018-09-14T07:51:50.742Z,8.87
2018-09-14T07:54:21.628Z,7.90
2018-09-14T07:56:52.751Z,7.67
2018-09-14T07:59:23.793Z,7.27
2018-09-14T08:01:54.766Z,6.80
2018-09-14T08:04:25.747Z,7.03
2018-09-14T08:06:56.845Z,6.87
2018-09-14T08:09:27.914Z,6.57
2018-09-14T08:11:58.925Z,6.50
2018-09-14T08:14:30.217Z,7.10
2018-09-14T08:17:02.628Z,6.80
2018-09-14T08:19:33.567Z,5.90
2018-09-14T08:22:04.496Z,6.87
2018-09-14T08:24:35.562Z,6.33
2018-09-14T08:27:06.569Z,5.93
2018-09-14T08:29:37.466Z,5.50
2018-09-14T08:32:08.497Z,5.50
2018-09-14T08:34:39.587Z,5.77
2018-09-14T08:37:10.595Z,5.70
2018-09-14T08:39:41.386Z,5.27
2018-09-14T08:42:12.284Z,5.27
2018-09-14T08:44:43.302Z,5.00
2018-09-14T08:47:14.371Z,5.07
2018-09-14T08:49:45.298Z,4.43
2018-09-14T08:52:16.276Z,5.10
2018-09-14T08:54:47.219Z,4.50
2018-09-14T08:57:18.200Z,4.03
2018-09-14T08:59:48.953Z,4.30
2018-09-14T09:02:19.691Z,3.97
2018-09-14T09:04:51.062Z,3.60
2018-09-14T09:07:22.013Z,4.20
2018-09-14T09:09:52.982Z,2.73
2018-09-14T09:12:23.902Z,2.30
2018-09-14T09:14:55.072Z,2.40
2018-09-14T09:17:25.945Z,3.30
2018-09-14T09:19:57.062Z,3.50
2018-09-14T09:22:28.004Z,3.63
2018-09-14T09:24:59.285Z,3.87
2018-09-14T09:27:30.303Z,3.40
2018-09-14T09:30:01.648Z,3.40
2018-09-14T09:32:33.224Z,3.33
2018-09-14T09:35:04.560Z,3.20
2018-09-14T09:37:36.169Z,3.40
2018-09-14T09:40:07.244Z,3.57
2018-09-14T09:42:38.263Z,3.27
2018-09-14T09:45:09.470Z,3.20
2018-09-14T09:47:40.495Z,3.53
2018-09-14T09:50:11.612Z,3.43
2018-09-14T09:52:42.733Z,3.47
2018-09-14T09:55:13.774Z,3.30
2018-09-14T09:57:44.836Z,3.60
2018-09-14T10:00:20.754Z,3.27
2018-09-14T10:02:56.727Z,3.00
2018-09-14T10:05:32.813Z,3.13
2018-09-14T10:08:03.908Z,2.93
2018-09-14T10:10:34.904Z,2.83
2018-09-14T10:13:06.105Z,2.90
2018-09-14T10:15:37.215Z,2.93
2018-09-14T10:18:08.291Z,3.10
2018-09-14T10:20:39.479Z,2.87
2018-09-14T10:23:10.470Z,2.63
2018-09-14T10:25:41.637Z,2.90
2018-09-14T10:28:12.508Z,2.97
2018-09-14T10:30:43.370Z,3.00
2018-09-14T10:33:14.508Z,2.93
2018-09-14T10:35:45.605Z,2.70
2018-09-14T10:38:16.517Z,2.83
2018-09-14T10:40:47.693Z,3.00
2018-09-14T10:43:18.707Z,2.90
2018-09-14T10:45:50.103Z,3.50
2018-09-14T10:48:21.156Z,3.07
2018-09-14T10:50:52.134Z,3.20
2018-09-14T10:53:23.122Z,2.77
2018-09-14T10:55:54.043Z,2.60
2018-09-14T10:58:25.035Z,2.70
2018-09-14T11:00:56.583Z,4.30
2018-09-14T11:03:27.567Z,2.67
2018-09-14T11:05:58.453Z,2.37
2018-09-14T11:08:29.744Z,2.97
2018-09-14T11:11:00.659Z,2.77
2018-09-14T11:13:31.775Z,2.40
2018-09-14T11:16:02.580Z,2.77
2018-09-14T11:18:33.446Z,2.57
2018-09-14T11:21:04.441Z,2.57
2018-09-14T11:23:35.596Z,2.57
2018-09-14T11:26:06.431Z,2.60
2018-09-14T11:28:37.378Z,2.50
2018-09-14T11:31:08.567Z,2.33
2018-09-14T11:33:39.640Z,3.60
2018-09-14T11:36:10.728Z,4.80
2018-09-14T11:38:42.103Z,2.83
2018-09-14T11:41:13.004Z,2.77
2018-09-14T11:43:43.903Z,2.93
2018-09-14T11:46:14.818Z,2.87
2018-09-14T11:48:46.647Z,2.87
2018-09-14T11:51:18.824Z,3.40
2018-09-14T11:53:49.957Z,3.73
2018-09-14T11:56:21.044Z,3.27
2018-09-14T11:58:52.178Z,3.30
2018-09-14T12:01:23.305Z,2.90
2018-09-14T12:03:54.366Z,2.97
2018-09-14T12:06:25.370Z,3.27
2018-09-14T12:08:56.563Z,3.40
2018-09-14T12:11:27.555Z,3.10
2018-09-14T12:13:58.779Z,3.60
2018-09-14T12:16:30.032Z,3.70
2018-09-14T12:19:01.078Z,3.47
2018-09-14T12:21:32.216Z,3.40
2018-09-14T12:24:03.453Z,3.53
2018-09-14T12:26:34.404Z,3.80
2018-09-14T12:29:05.467Z,3.90
2018-09-14T12:31:36.332Z,4.20
2018-09-14T12:34:07.698Z,4.00
2018-09-14T12:36:38.648Z,3.70
2018-09-14T12:39:11.137Z,4.33
2018-09-14T12:41:41.980Z,4.83
2018-09-14T12:44:13.017Z,3.67
2018-09-14T12:46:43.949Z,4.10
2018-09-14T12:49:14.958Z,3.60
2018-09-14T12:51:46.059Z,3.70
2018-09-14T12:54:16.988Z,3.77
2018-09-14T12:56:48.167Z,4.00
2018-09-14T12:59:18.997Z,3.97
2018-09-14T13:01:49.944Z,3.60
2018-09-14T13:04:20.929Z,3.77
2018-09-14T13:06:51.924Z,3.73
2018-09-14T13:09:22.782Z,3.70
2018-09-14T13:11:53.762Z,3.80
2018-09-14T13:14:25.031Z,3.83
2018-09-14T13:17:00.051Z,3.70
2018-09-14T13:19:31.675Z,4.17
2018-09-14T13:22:02.738Z,4.87
2018-09-14T13:24:33.857Z,4.07
2018-09-14T13:27:04.916Z,3.60
2018-09-14T13:29:36.253Z,4.17
2018-09-14T13:32:07.180Z,3.40
2018-09-14T13:34:37.971Z,4.00
2018-09-14T13:37:09.814Z,4.47
2018-09-14T13:39:40.677Z,4.30
2018-09-14T13:42:11.610Z,3.83
2018-09-14T13:44:42.444Z,3.60
2018-09-14T13:47:13.598Z,4.00
2018-09-14T13:49:44.658Z,4.07
2018-09-14T13:52:15.573Z,3.70
2018-09-14T13:54:46.574Z,3.60
2018-09-14T13:57:17.641Z,3.57
2018-09-14T13:59:48.651Z,4.30
2018-09-14T14:04:43.744Z,3.60
2018-09-14T14:07:15.974Z,4.00
2018-09-14T14:09:48.151Z,5.10
2018-09-14T14:12:19.677Z,4.00
2018-09-14T14:14:51.651Z,4.43
2018-09-14T14:17:27.130Z,3.73
2018-09-14T14:20:00.462Z,3.73
2018-09-14T14:22:33.621Z,4.00
2018-09-14T14:25:05.925Z,3.93
2018-09-14T14:27:37.873Z,4.20
2018-09-14T14:30:09.942Z,3.90
2018-09-14T14:32:42.228Z,3.97
2018-09-14T14:35:14.614Z,3.63
2018-09-14T14:37:47.992Z,3.90
2018-09-14T14:40:20.328Z,3.70
2018-09-14T14:42:52.448Z,3.60
2018-09-14T14:45:24.668Z,3.80
2018-09-14T14:47:56.413Z,3.37
2018-09-14T14:50:28.802Z,3.63
2018-09-14T14:53:02.232Z,3.87
2018-09-14T14:55:34.354Z,3.70
2018-09-14T14:58:06.748Z,3.50
2018-09-14T15:00:39.047Z,3.70
2018-09-14T15:03:11.380Z,3.40
2018-09-14T15:05:44.615Z,3.70
2018-09-14T15:08:16.987Z,3.53
2018-09-14T15:10:49.329Z,3.77
2018-09-14T15:13:21.234Z,3.50
2018-09-14T15:15:53.143Z,3.53
2018-09-14T15:18:25.362Z,3.60
2018-09-14T15:20:57.519Z,3.63
2018-09-14T15:23:29.533Z,3.67
2018-09-14T15:26:02.195Z,3.77
2018-09-14T15:28:34.704Z,3.20
2018-09-14T15:31:06.844Z,3.60
2018-09-14T15:33:39.794Z,3.50
2018-09-14T15:36:12.031Z,3.50
2018-09-14T15:38:44.424Z,3.60
2018-09-14T15:41:17.961Z,3.30
2018-09-14T15:43:51.039Z,3.13
2018-09-14T15:46:23.291Z,3.53
2018-09-14T15:48:55.483Z,4.00
2018-09-14T15:51:27.956Z,3.47
2018-09-14T15:54:00.668Z,3.93
2018-09-14T15:56:32.847Z,3.80
2018-09-14T15:59:05.270Z,3.70
2018-09-14T16:01:37.044Z,3.77
2018-09-14T16:04:09.460Z,3.70
2018-09-14T16:06:42.457Z,3.77
2018-09-14T16:09:14.884Z,3.40
2018-09-14T16:11:47.946Z,3.63
2018-09-14T16:14:21.851Z,3.60
2018-09-14T16:16:54.297Z,3.13
2018-09-14T16:19:26.413Z,3.50
2018-09-14T16:21:59.653Z,3.40
2018-09-14T16:24:32.725Z,3.60
2018-09-14T16:27:05.144Z,3.23
2018-09-14T16:29:38.400Z,4.03
2018-09-14T16:32:11.791Z,3.90
2018-09-14T16:34:45.655Z,3.93
2018-09-14T16:37:17.894Z,3.77
2018-09-14T16:39:50.607Z,3.73
2018-09-14T16:42:22.903Z,4.40
2018-09-14T16:44:55.233Z,4.20
2018-09-14T16:47:28.778Z,4.23
2018-09-14T16:50:01.371Z,3.93
2018-09-14T16:52:34.423Z,3.77
2018-09-14T16:55:07.236Z,3.67
2018-09-14T16:57:39.799Z,4.00
2018-09-14T17:00:12.689Z,3.90
2018-09-14T17:02:45.943Z,3.50
2018-09-14T17:05:18.514Z,4.13
2018-09-14T17:07:51.094Z,4.37
2018-09-14T17:10:24.055Z,4.20
2018-09-14T17:12:56.860Z,4.20
2018-09-14T17:15:29.690Z,4.60
2018-09-14T17:18:02.814Z,4.80
2018-09-14T17:20:36.017Z,4.73
2018-09-14T17:23:09.170Z,4.90
2018-09-14T17:25:42.426Z,4.43
2018-09-14T17:28:15.321Z,4.03
2018-09-14T17:30:47.894Z,4.27
2018-09-14T17:33:20.039Z,4.20
2018-09-14T17:35:52.953Z,4.43
2018-09-14T17:38:26.265Z,4.50
2018-09-14T17:40:59.542Z,5.00
2018-09-14T17:43:32.955Z,5.20
2018-09-14T17:46:06.096Z,5.00
2018-09-14T17:48:39.287Z,4.70
2018-09-14T17:51:12.337Z,4.97
2018-09-14T17:53:46.185Z,5.20
2018-09-14T17:56:18.781Z,5.60
2018-09-14T17:58:51.497Z,5.77
2018-09-14T18:01:25.026Z,5.50
2018-09-14T18:03:57.754Z,5.50
2018-09-14T18:06:32.271Z,5.27
2018-09-14T18:09:06.088Z,5.57
2018-09-14T18:11:39.973Z,5.97
2018-09-14T18:14:12.910Z,5.40
2018-09-14T18:16:45.832Z,5.87
2018-09-14T18:19:20.026Z,5.70
2018-09-14T18:21:53.594Z,5.57
2018-09-14T18:24:26.301Z,6.30
2018-09-14T18:27:01.585Z,6.10
2018-09-14T18:29:34.189Z,6.07
2018-09-14T18:32:06.401Z,6.13
2018-09-14T18:34:38.845Z,6.10
2018-09-14T18:37:12.849Z,5.93
2018-09-14T18:39:45.560Z,5.97
2018-09-14T18:42:19.020Z,6.37
2018-09-14T18:44:51.463Z,5.90
2018-09-14T18:47:24.520Z,6.13
2018-09-14T18:49:57.550Z,6.13
2018-09-14T18:52:30.399Z,6.37
2018-09-14T18:55:03.264Z,6.30
2018-09-14T18:57:36.543Z,6.10
2018-09-14T19:00:09.795Z,6.53
2018-09-14T19:02:42.383Z,6.57
2018-09-14T19:05:15.531Z,5.90
2018-09-14T19:07:48.142Z,6.30
2018-09-14T19:10:20.867Z,5.80
2018-09-14T19:12:54.925Z,6.10
2018-09-14T19:15:28.056Z,6.23
2018-09-14T19:18:01.363Z,6.43
2018-09-14T19:20:33.949Z,6.13
2018-09-14T19:23:07.241Z,6.40
2018-09-14T19:25:39.988Z,5.90
2018-09-14T19:28:13.474Z,5.97
2018-09-14T19:30:46.698Z,5.50
2018-09-14T19:33:20.840Z,5.90
2018-09-14T19:35:53.232Z,6.13
2018-09-14T19:38:25.715Z,5.93
2018-09-14T19:40:59.678Z,6.20
2018-09-14T19:43:31.987Z,6.07
2018-09-14T19:46:05.293Z,5.80
2018-09-14T19:48:38.538Z,6.13
2018-09-14T19:51:11.240Z,5.90
2018-09-14T19:53:44.425Z,5.87
2018-09-14T19:56:16.742Z,5.83
2018-09-14T19:58:48.960Z,6.57
2018-09-14T20:01:21.586Z,6.30
2018-09-14T20:03:54.058Z,5.70
2018-09-14T20:06:26.597Z,5.90
2018-09-14T20:08:58.943Z,6.07
2018-09-14T20:11:31.561Z,5.93
2018-09-14T20:14:03.701Z,5.60
2018-09-14T20:16:36.062Z,6.43
2018-09-14T20:19:07.992Z,6.13
2018-09-14T20:21:40.523Z,5.70
2018-09-14T20:24:13.004Z,5.93
2018-09-14T20:26:47.161Z,5.93
2018-09-14T20:29:19.525Z,6.00
2018-09-14T20:31:51.754Z,5.83
2018-09-14T20:34:24.197Z,6.00
2018-09-14T20:36:56.983Z,5.83
2018-09-14T20:39:29.214Z,5.40
2018-09-14T20:42:03.955Z,5.97
2018-09-14T20:44:36.203Z,5.97
2018-09-14T20:47:08.495Z,5.47
2018-09-14T20:49:40.427Z,5.83
2018-09-14T20:52:13.220Z,5.90
2018-09-14T20:54:46.431Z,5.57
2018-09-14T20:57:19.802Z,6.40
2018-09-14T20:59:52.191Z,6.03
2018-09-14T21:02:25.752Z,6.77
2018-09-14T21:04:57.854Z,5.93
2018-09-14T21:07:30.302Z,5.77
2018-09-14T21:10:02.803Z,6.33
2018-09-14T21:12:35.419Z,6.20
2018-09-14T21:15:08.301Z,6.10
2018-09-14T21:17:41.184Z,6.10
2018-09-14T21:20:13.692Z,6.53
2018-09-14T21:22:46.178Z,6.00
2018-09-14T21:25:18.125Z,5.90
2018-09-14T21:27:50.399Z,5.73
2018-09-14T21:30:22.759Z,6.07
2018-09-14T21:32:54.821Z,6.17
2018-09-14T21:35:27.105Z,6.10
2018-09-14T21:37:59.530Z,6.40
2018-09-14T21:40:31.862Z,6.30
2018-09-14T21:43:05.072Z,5.70
2018-09-14T21:45:37.507Z,6.40
2018-09-14T21:48:10.533Z,5.90
2018-09-14T21:50:42.959Z,6.03
2018-09-14T21:53:15.167Z,5.90
2018-09-14T21:55:47.296Z,6.63
2018-09-14T21:58:19.209Z,5.90
2018-09-14T22:00:56.621Z,6.03
2018-09-14T22:03:29.610Z,6.63
2018-09-14T22:06:01.631Z,6.17
2018-09-14T22:08:34.079Z,5.67
2018-09-14T22:11:06.555Z,6.03
2018-09-14T22:13:39.152Z,6.43
2018-09-14T22:16:11.055Z,6.43
2018-09-14T22:18:43.596Z,5.97
2018-09-14T22:21:15.444Z,5.77
2018-09-14T22:23:47.524Z,6.23
2018-09-14T22:26:19.453Z,6.50
2018-09-14T22:28:51.514Z,6.43
2018-09-14T22:31:23.474Z,6.20
2018-09-14T22:33:55.944Z,6.03
2018-09-14T22:36:28.045Z,5.77
2018-09-14T22:39:00.366Z,6.27
2018-09-14T22:41:33.136Z,6.30
2018-09-14T22:44:04.963Z,6.43
2018-09-14T22:46:36.774Z,6.30
2018-09-14T22:49:08.669Z,5.83
2018-09-14T22:51:40.768Z,6.47
2018-09-14T22:54:13.362Z,6.30
2018-09-14T22:56:46.422Z,6.27
2018-09-14T22:59:18.545Z,6.23
2018-09-14T23:01:53.240Z,6.60
2018-09-14T23:04:25.461Z,6.20
2018-09-14T23:06:58.251Z,6.03
2018-09-14T23:09:30.793Z,5.80
2018-09-14T23:12:03.254Z,6.10
2018-09-14T23:14:35.859Z,5.80
2018-09-14T23:17:08.091Z,6.67
2018-09-14T23:19:40.129Z,5.80
2018-09-14T23:22:12.244Z,6.33
2018-09-14T23:24:44.096Z,6.53
2018-09-14T23:27:15.974Z,6.70
2018-09-14T23:29:48.543Z,5.97
2018-09-14T23:32:20.266Z,6.37
2018-09-14T23:34:52.417Z,6.60
2018-09-14T23:37:24.206Z,6.63
2018-09-14T23:39:56.553Z,6.10
2018-09-14T23:42:28.317Z,6.17
2018-09-14T23:45:00.768Z,6.13
2018-09-14T23:47:32.954Z,6.13
2018-09-14T23:50:05.081Z,6.70
2018-09-14T23:52:37.201Z,6.43
2018-09-14T23:55:09.919Z,6.03
2018-09-14T23:57:41.841Z,6.60
